sensor_id;sensor_type;location;lat;lon;timestamp;temperature;humidity
4739;DHT22;2383;48.632;10.156;2023-02-04T00:02:19;3.90;99.90
4739;DHT22;2383;48.632;10.156;2023-02-04T00:06:21;4.20;99.90
4739;DHT22;2383;48.632;10.156;2023-02-04T00:10:23;3.40;99.90
4739;DHT22;2383;48.632;10.156;2023-02-04T00:14:25;3.50;99.90
4739;DHT22;2383;48.632;10.156;2023-02-04T00:18:27;3.60;99.90
4739;DHT22;2383;48.632;10.156;2023-02-04T00:22:30;3.70;99.90
4739;DHT22;2383;48.632;10.156;2023-02-04T00:26:32;4.20;99.90
4739;DHT22;2383;48.632;10.156;2023-02-04T00:30:34;4.10;99.90
4739;DHT22;2383;48.632;10.156;2023-02-04T00:34:36;4.40;99.90
4739;DHT22;2383;48.632;10.156;2023-02-04T00:38:38;4.90;99.90
4739;DHT22;2383;48.632;10.156;2023-02-04T00:42:40;5.20;99.90
4739;DHT22;2383;48.632;10.156;2023-02-04T00:46:42;5.40;99.90
4739;DHT22;2383;48.632;10.156;2023-02-04T00:50:44;5.00;99.90
4739;DHT22;2383;48.632;10.156;2023-02-04T00:54:46;5.30;99.90
4739;DHT22;2383;48.632;10.156;2023-02-04T00:58:48;5.00;99.90
4739;DHT22;2383;48.632;10.156;2023-02-04T01:02:50;4.50;99.90
4739;DHT22;2383;48.632;10.156;2023-02-04T01:06:53;4.00;99.90
4739;DHT22;2383;48.632;10.156;2023-02-04T01:10:55;3.60;99.90
4739;DHT22;2383;48.632;10.156;2023-02-04T01:14:57;3.80;99.90
4739;DHT22;2383;48.632;10.156;2023-02-04T01:18:59;4.50;99.90
4739;DHT22;2383;48.632;10.156;2023-02-04T01:23:01;4.20;99.90
4739;DHT22;2383;48.632;10.156;2023-02-04T01:27:03;4.50;99.90
4739;DHT22;2383;48.632;10.156;2023-02-04T01:31:05;3.40;99.90
4739;DHT22;2383;48.632;10.156;2023-02-04T01:35:08;2.70;99.90
4739;DHT22;2383;48.632;10.156;2023-02-04T01:39:09;2.50;99.90
4739;DHT22;2383;48.632;10.156;2023-02-04T01:43:11;2.60;99.90
4739;DHT22;2383;48.632;10.156;2023-02-04T01:47:13;1.90;99.90
4739;DHT22;2383;48.632;10.156;2023-02-04T01:51:25;1.40;99.90
4739;DHT22;2383;48.632;10.156;2023-02-04T01:55:31;1.90;99.90
4739;DHT22;2383;48.632;10.156;2023-02-04T01:59:33;2.80;99.90
4739;DHT22;2383;48.632;10.156;2023-02-04T02:03:35;2.10;99.90
4739;DHT22;2383;48.632;10.156;2023-02-04T02:07:38;1.90;99.90
4739;DHT22;2383;48.632;10.156;2023-02-04T02:11:40;2.30;99.90
4739;DHT22;2383;48.632;10.156;2023-02-04T02:15:42;2.70;99.90
4739;DHT22;2383;48.632;10.156;2023-02-04T02:19:44;2.50;99.90
4739;DHT22;2383;48.632;10.156;2023-02-04T02:23:47;2.60;99.90
4739;DHT22;2383;48.632;10.156;2023-02-04T02:27:50;3.40;99.90
4739;DHT22;2383;48.632;10.156;2023-02-04T02:31:53;4.10;99.90
4739;DHT22;2383;48.632;10.156;2023-02-04T02:35:59;4.00;99.90
4739;DHT22;2383;48.632;10.156;2023-02-04T02:40:02;4.10;99.90
4739;DHT22;2383;48.632;10.156;2023-02-04T02:44:06;4.40;99.90
4739;DHT22;2383;48.632;10.156;2023-02-04T02:48:08;4.10;99.90
4739;DHT22;2383;48.632;10.156;2023-02-04T02:52:11;4.10;99.90
4739;DHT22;2383;48.632;10.156;2023-02-04T02:56:15;4.00;99.90
4739;DHT22;2383;48.632;10.156;2023-02-04T03:00:24;4.30;99.90
4739;DHT22;2383;48.632;10.156;2023-02-04T03:04:32;4.10;99.90
4739;DHT22;2383;48.632;10.156;2023-02-04T03:08:36;3.50;99.90
4739;DHT22;2383;48.632;10.156;2023-02-04T03:12:38;2.80;99.90
4739;DHT22;2383;48.632;10.156;2023-02-04T03:16:40;2.50;99.90
4739;DHT22;2383;48.632;10.156;2023-02-04T03:20:43;3.00;99.90
4739;DHT22;2383;48.632;10.156;2023-02-04T03:24:45;3.30;99.90
4739;DHT22;2383;48.632;10.156;2023-02-04T03:28:48;3.50;99.90
4739;DHT22;2383;48.632;10.156;2023-02-04T03:32:50;3.00;99.90
4739;DHT22;2383;48.632;10.156;2023-02-04T03:36:52;2.40;99.90
4739;DHT22;2383;48.632;10.156;2023-02-04T03:40:54;2.50;99.90
4739;DHT22;2383;48.632;10.156;2023-02-04T03:44:56;3.30;99.90
4739;DHT22;2383;48.632;10.156;2023-02-04T03:48:58;3.30;99.90
4739;DHT22;2383;48.632;10.156;2023-02-04T03:53:00;2.30;99.90
4739;DHT22;2383;48.632;10.156;2023-02-04T03:57:02;2.90;99.90
4739;DHT22;2383;48.632;10.156;2023-02-04T04:01:04;2.30;99.90
4739;DHT22;2383;48.632;10.156;2023-02-04T04:05:07;2.40;99.90
4739;DHT22;2383;48.632;10.156;2023-02-04T04:09:09;1.50;99.90
4739;DHT22;2383;48.632;10.156;2023-02-04T04:13:11;2.30;99.90
4739;DHT22;2383;48.632;10.156;2023-02-04T04:17:13;2.40;99.90
4739;DHT22;2383;48.632;10.156;2023-02-04T04:21:15;2.20;99.90
4739;DHT22;2383;48.632;10.156;2023-02-04T04:25:17;2.70;99.90
4739;DHT22;2383;48.632;10.156;2023-02-04T04:29:19;2.00;99.90
4739;DHT22;2383;48.632;10.156;2023-02-04T04:33:21;1.20;99.90
4739;DHT22;2383;48.632;10.156;2023-02-04T04:37:24;2.00;99.90
4739;DHT22;2383;48.632;10.156;2023-02-04T04:41:26;1.80;99.90
4739;DHT22;2383;48.632;10.156;2023-02-04T04:45:28;2.60;99.90
4739;DHT22;2383;48.632;10.156;2023-02-04T04:49:30;3.20;99.90
4739;DHT22;2383;48.632;10.156;2023-02-04T04:53:32;3.40;99.90
4739;DHT22;2383;48.632;10.156;2023-02-04T04:57:34;3.40;99.90
4739;DHT22;2383;48.632;10.156;2023-02-04T05:01:36;3.10;99.90
4739;DHT22;2383;48.632;10.156;2023-02-04T05:05:38;3.10;99.90
4739;DHT22;2383;48.632;10.156;2023-02-04T05:09:41;3.20;99.90
4739;DHT22;2383;48.632;10.156;2023-02-04T05:13:43;3.40;99.90
4739;DHT22;2383;48.632;10.156;2023-02-04T05:17:45;3.70;99.90
4739;DHT22;2383;48.632;10.156;2023-02-04T05:21:47;4.10;99.90
4739;DHT22;2383;48.632;10.156;2023-02-04T05:25:49;4.20;99.70
4739;DHT22;2383;48.632;10.156;2023-02-04T05:29:51;4.00;99.90
4739;DHT22;2383;48.632;10.156;2023-02-04T05:33:53;4.20;99.70
4739;DHT22;2383;48.632;10.156;2023-02-04T05:37:55;4.20;99.80
4739;DHT22;2383;48.632;10.156;2023-02-04T05:41:57;4.40;99.50
4739;DHT22;2383;48.632;10.156;2023-02-04T05:46:00;3.90;99.80
4739;DHT22;2383;48.632;10.156;2023-02-04T05:50:02;3.50;99.90
4739;DHT22;2383;48.632;10.156;2023-02-04T05:54:04;3.80;99.90
4739;DHT22;2383;48.632;10.156;2023-02-04T05:58:06;4.00;99.80
4739;DHT22;2383;48.632;10.156;2023-02-04T06:02:08;4.10;98.80
4739;DHT22;2383;48.632;10.156;2023-02-04T06:06:10;4.00;99.10
4739;DHT22;2383;48.632;10.156;2023-02-04T06:10:12;4.10;99.30
4739;DHT22;2383;48.632;10.156;2023-02-04T06:14:14;4.40;99.30
4739;DHT22;2383;48.632;10.156;2023-02-04T06:18:16;3.40;99.90
4739;DHT22;2383;48.632;10.156;2023-02-04T06:22:18;3.90;99.90
4739;DHT22;2383;48.632;10.156;2023-02-04T06:26:20;4.10;99.00
4739;DHT22;2383;48.632;10.156;2023-02-04T06:30:22;4.10;98.80
4739;DHT22;2383;48.632;10.156;2023-02-04T06:34:24;4.00;98.50
4739;DHT22;2383;48.632;10.156;2023-02-04T06:38:26;3.90;99.10
4739;DHT22;2383;48.632;10.156;2023-02-04T06:42:28;4.10;98.50
4739;DHT22;2383;48.632;10.156;2023-02-04T06:46:30;3.80;99.10
4739;DHT22;2383;48.632;10.156;2023-02-04T06:50:32;4.00;98.50
4739;DHT22;2383;48.632;10.156;2023-02-04T06:54:34;3.90;99.30
4739;DHT22;2383;48.632;10.156;2023-02-04T06:58:36;4.30;98.80
4739;DHT22;2383;48.632;10.156;2023-02-04T07:02:38;4.50;98.80
4739;DHT22;2383;48.632;10.156;2023-02-04T07:06:40;4.50;98.60
4739;DHT22;2383;48.632;10.156;2023-02-04T07:10:42;4.60;98.70
4739;DHT22;2383;48.632;10.156;2023-02-04T07:14:44;4.70;98.50
4739;DHT22;2383;48.632;10.156;2023-02-04T07:18:46;4.70;97.80
4739;DHT22;2383;48.632;10.156;2023-02-04T07:22:48;4.60;97.80
4739;DHT22;2383;48.632;10.156;2023-02-04T07:26:50;4.60;97.80
4739;DHT22;2383;48.632;10.156;2023-02-04T07:30:52;4.40;97.90
4739;DHT22;2383;48.632;10.156;2023-02-04T07:34:54;4.40;98.00
4739;DHT22;2383;48.632;10.156;2023-02-04T07:38:56;4.50;97.90
4739;DHT22;2383;48.632;10.156;2023-02-04T07:42:58;4.50;98.10
4739;DHT22;2383;48.632;10.156;2023-02-04T07:47:02;4.50;98.30
4739;DHT22;2383;48.632;10.156;2023-02-04T07:51:05;4.70;98.50
4739;DHT22;2383;48.632;10.156;2023-02-04T07:55:08;4.70;98.30
4739;DHT22;2383;48.632;10.156;2023-02-04T07:59:10;4.70;97.80
4739;DHT22;2383;48.632;10.156;2023-02-04T08:03:12;4.90;97.20
4739;DHT22;2383;48.632;10.156;2023-02-04T08:07:13;5.10;97.20
4739;DHT22;2383;48.632;10.156;2023-02-04T08:11:16;4.90;96.70
4739;DHT22;2383;48.632;10.156;2023-02-04T08:15:17;4.90;96.70
4739;DHT22;2383;48.632;10.156;2023-02-04T08:19:19;4.60;97.50
4739;DHT22;2383;48.632;10.156;2023-02-04T08:23:22;4.90;96.50
4739;DHT22;2383;48.632;10.156;2023-02-04T08:27:24;5.10;96.60
4739;DHT22;2383;48.632;10.156;2023-02-04T08:31:26;5.20;96.50
4739;DHT22;2383;48.632;10.156;2023-02-04T08:35:29;5.20;95.80
4739;DHT22;2383;48.632;10.156;2023-02-04T08:39:31;5.20;95.90
4739;DHT22;2383;48.632;10.156;2023-02-04T08:43:33;5.30;96.20
4739;DHT22;2383;48.632;10.156;2023-02-04T08:47:36;5.50;95.90
4739;DHT22;2383;48.632;10.156;2023-02-04T08:51:38;5.50;95.70
4739;DHT22;2383;48.632;10.156;2023-02-04T08:55:40;5.40;95.00
4739;DHT22;2383;48.632;10.156;2023-02-04T08:59:42;5.10;95.60
4739;DHT22;2383;48.632;10.156;2023-02-04T09:03:44;5.30;96.10
4739;DHT22;2383;48.632;10.156;2023-02-04T09:07:45;5.40;95.60
4739;DHT22;2383;48.632;10.156;2023-02-04T09:11:47;5.40;95.00
4739;DHT22;2383;48.632;10.156;2023-02-04T09:15:49;5.30;95.20
4739;DHT22;2383;48.632;10.156;2023-02-04T09:19:55;4.40;95.70
4739;DHT22;2383;48.632;10.156;2023-02-04T09:23:57;4.60;96.00
4739;DHT22;2383;48.632;10.156;2023-02-04T09:27:58;4.20;95.80
4739;DHT22;2383;48.632;10.156;2023-02-04T09:32:00;4.70;96.10
4739;DHT22;2383;48.632;10.156;2023-02-04T09:36:03;4.80;95.40
4739;DHT22;2383;48.632;10.156;2023-02-04T09:40:05;4.90;95.10
4739;DHT22;2383;48.632;10.156;2023-02-04T09:44:15;5.10;95.30
4739;DHT22;2383;48.632;10.156;2023-02-04T09:48:17;5.30;95.30
4739;DHT22;2383;48.632;10.156;2023-02-04T09:52:20;4.80;95.40
4739;DHT22;2383;48.632;10.156;2023-02-04T09:56:25;4.80;95.50
4739;DHT22;2383;48.632;10.156;2023-02-04T10:00:29;4.70;95.70
4739;DHT22;2383;48.632;10.156;2023-02-04T10:04:31;3.10;97.70
4739;DHT22;2383;48.632;10.156;2023-02-04T10:08:34;1.80;99.10
4739;DHT22;2383;48.632;10.156;2023-02-04T10:12:36;2.30;99.70
4739;DHT22;2383;48.632;10.156;2023-02-04T10:16:38;3.00;98.60
4739;DHT22;2383;48.632;10.156;2023-02-04T10:20:42;3.00;99.00
4739;DHT22;2383;48.632;10.156;2023-02-04T10:24:44;2.60;99.00
4739;DHT22;2383;48.632;10.156;2023-02-04T10:28:46;1.80;99.80
4739;DHT22;2383;48.632;10.156;2023-02-04T10:32:51;2.60;99.30
4739;DHT22;2383;48.632;10.156;2023-02-04T10:36:54;2.80;98.50
4739;DHT22;2383;48.632;10.156;2023-02-04T10:41:05;3.60;98.40
4739;DHT22;2383;48.632;10.156;2023-02-04T10:45:29;3.20;97.90
4739;DHT22;2383;48.632;10.156;2023-02-04T10:49:32;2.70;98.40
4739;DHT22;2383;48.632;10.156;2023-02-04T10:53:34;3.70;97.40
4739;DHT22;2383;48.632;10.156;2023-02-04T10:57:54;4.20;96.60
4739;DHT22;2383;48.632;10.156;2023-02-04T11:01:58;4.40;96.80
4739;DHT22;2383;48.632;10.156;2023-02-04T11:06:01;4.50;96.50
4739;DHT22;2383;48.632;10.156;2023-02-04T11:10:03;4.70;96.10
4739;DHT22;2383;48.632;10.156;2023-02-04T11:14:25;4.00;96.00
4739;DHT22;2383;48.632;10.156;2023-02-04T11:18:29;3.40;96.60
4739;DHT22;2383;48.632;10.156;2023-02-04T11:22:45;2.90;97.10
4739;DHT22;2383;48.632;10.156;2023-02-04T11:26:50;3.70;96.30
4739;DHT22;2383;48.632;10.156;2023-02-04T11:31:02;4.30;94.80
4739;DHT22;2383;48.632;10.156;2023-02-04T11:39:15;3.10;96.10
4739;DHT22;2383;48.632;10.156;2023-02-04T11:43:18;3.90;95.70
4739;DHT22;2383;48.632;10.156;2023-02-04T11:47:23;4.30;94.60
4739;DHT22;2383;48.632;10.156;2023-02-04T11:51:31;3.70;95.50
4739;DHT22;2383;48.632;10.156;2023-02-04T11:55:35;3.20;96.00
4739;DHT22;2383;48.632;10.156;2023-02-04T11:59:37;3.80;95.80
4739;DHT22;2383;48.632;10.156;2023-02-04T12:03:49;4.30;95.40
4739;DHT22;2383;48.632;10.156;2023-02-04T12:07:51;5.00;94.20
4739;DHT22;2383;48.632;10.156;2023-02-04T12:11:58;4.50;94.20
4739;DHT22;2383;48.632;10.156;2023-02-04T12:20:04;3.70;95.80
4739;DHT22;2383;48.632;10.156;2023-02-04T12:24:06;4.50;94.80
4739;DHT22;2383;48.632;10.156;2023-02-04T12:28:08;4.70;94.30
4739;DHT22;2383;48.632;10.156;2023-02-04T12:32:10;4.50;93.40
4739;DHT22;2383;48.632;10.156;2023-02-04T12:36:12;4.70;94.30
4739;DHT22;2383;48.632;10.156;2023-02-04T12:40:15;4.30;94.20
4739;DHT22;2383;48.632;10.156;2023-02-04T12:44:17;5.10;93.90
4739;DHT22;2383;48.632;10.156;2023-02-04T12:48:19;4.50;94.80
4739;DHT22;2383;48.632;10.156;2023-02-04T12:52:21;4.10;96.50
4739;DHT22;2383;48.632;10.156;2023-02-04T12:56:24;3.70;97.20
4739;DHT22;2383;48.632;10.156;2023-02-04T13:00:26;2.90;98.20
4739;DHT22;2383;48.632;10.156;2023-02-04T13:04:28;2.70;98.00
4739;DHT22;2383;48.632;10.156;2023-02-04T13:08:30;3.40;97.70
4739;DHT22;2383;48.632;10.156;2023-02-04T13:12:32;4.30;96.40
4739;DHT22;2383;48.632;10.156;2023-02-04T13:16:34;3.90;96.80
4739;DHT22;2383;48.632;10.156;2023-02-04T13:20:35;3.50;97.10
4739;DHT22;2383;48.632;10.156;2023-02-04T13:24:37;3.60;96.50
4739;DHT22;2383;48.632;10.156;2023-02-04T13:28:39;3.80;96.70
4739;DHT22;2383;48.632;10.156;2023-02-04T13:32:41;3.70;96.50
4739;DHT22;2383;48.632;10.156;2023-02-04T13:36:44;3.30;96.70
4739;DHT22;2383;48.632;10.156;2023-02-04T13:40:46;3.60;95.80
4739;DHT22;2383;48.632;10.156;2023-02-04T13:44:47;2.90;95.90
4739;DHT22;2383;48.632;10.156;2023-02-04T13:48:50;3.20;95.80
4739;DHT22;2383;48.632;10.156;2023-02-04T13:52:52;3.50;95.70
4739;DHT22;2383;48.632;10.156;2023-02-04T13:56:54;2.40;95.90
4739;DHT22;2383;48.632;10.156;2023-02-04T14:00:55;1.60;96.50
4739;DHT22;2383;48.632;10.156;2023-02-04T14:04:58;2.60;96.30
4739;DHT22;2383;48.632;10.156;2023-02-04T14:09:00;3.00;95.60
4739;DHT22;2383;48.632;10.156;2023-02-04T14:13:02;3.40;95.30
4739;DHT22;2383;48.632;10.156;2023-02-04T14:17:04;3.50;95.40
4739;DHT22;2383;48.632;10.156;2023-02-04T14:21:06;4.00;94.70
4739;DHT22;2383;48.632;10.156;2023-02-04T14:25:08;4.50;94.70
4739;DHT22;2383;48.632;10.156;2023-02-04T14:29:11;4.40;94.30
4739;DHT22;2383;48.632;10.156;2023-02-04T14:33:13;3.20;95.10
4739;DHT22;2383;48.632;10.156;2023-02-04T14:37:16;3.70;94.80
4739;DHT22;2383;48.632;10.156;2023-02-04T14:41:18;3.90;94.60
4739;DHT22;2383;48.632;10.156;2023-02-04T14:45:22;4.20;93.90
4739;DHT22;2383;48.632;10.156;2023-02-04T14:49:23;4.10;93.90
4739;DHT22;2383;48.632;10.156;2023-02-04T14:53:26;4.40;93.80
4739;DHT22;2383;48.632;10.156;2023-02-04T14:57:28;4.50;93.60
4739;DHT22;2383;48.632;10.156;2023-02-04T15:01:30;4.40;93.20
4739;DHT22;2383;48.632;10.156;2023-02-04T15:05:32;3.60;93.80
4739;DHT22;2383;48.632;10.156;2023-02-04T15:09:34;3.60;93.90
4739;DHT22;2383;48.632;10.156;2023-02-04T15:13:36;3.90;93.80
4739;DHT22;2383;48.632;10.156;2023-02-04T15:17:38;3.80;93.80
4739;DHT22;2383;48.632;10.156;2023-02-04T15:21:40;4.40;93.10
4739;DHT22;2383;48.632;10.156;2023-02-04T15:25:42;4.40;93.10
4739;DHT22;2383;48.632;10.156;2023-02-04T15:29:44;4.80;93.10
4739;DHT22;2383;48.632;10.156;2023-02-04T15:33:46;5.10;92.80
4739;DHT22;2383;48.632;10.156;2023-02-04T15:37:48;5.10;92.50
4739;DHT22;2383;48.632;10.156;2023-02-04T15:41:50;4.60;92.30
4739;DHT22;2383;48.632;10.156;2023-02-04T15:45:52;4.40;92.60
4739;DHT22;2383;48.632;10.156;2023-02-04T15:49:54;3.40;93.80
4739;DHT22;2383;48.632;10.156;2023-02-04T15:53:56;2.40;94.80
4739;DHT22;2383;48.632;10.156;2023-02-04T15:57:58;3.00;95.00
4739;DHT22;2383;48.632;10.156;2023-02-04T16:02:00;3.60;94.20
4739;DHT22;2383;48.632;10.156;2023-02-04T16:06:02;3.00;93.80
4739;DHT22;2383;48.632;10.156;2023-02-04T16:10:06;3.00;94.70
4739;DHT22;2383;48.632;10.156;2023-02-04T16:14:08;2.70;94.50
4739;DHT22;2383;48.632;10.156;2023-02-04T16:18:10;3.10;94.90
4739;DHT22;2383;48.632;10.156;2023-02-04T16:22:12;3.90;94.70
4739;DHT22;2383;48.632;10.156;2023-02-04T16:26:14;4.20;93.60
4739;DHT22;2383;48.632;10.156;2023-02-04T16:30:16;4.20;93.50
4739;DHT22;2383;48.632;10.156;2023-02-04T16:34:19;4.00;93.50
4739;DHT22;2383;48.632;10.156;2023-02-04T16:38:21;3.30;94.40
4739;DHT22;2383;48.632;10.156;2023-02-04T16:42:23;3.60;94.40
4739;DHT22;2383;48.632;10.156;2023-02-04T16:46:25;3.80;94.10
4739;DHT22;2383;48.632;10.156;2023-02-04T16:50:29;3.90;94.00
4739;DHT22;2383;48.632;10.156;2023-02-04T16:54:32;3.90;93.90
4739;DHT22;2383;48.632;10.156;2023-02-04T16:58:34;3.90;94.10
4739;DHT22;2383;48.632;10.156;2023-02-04T17:02:36;3.80;94.30
4739;DHT22;2383;48.632;10.156;2023-02-04T17:06:38;3.90;94.10
4739;DHT22;2383;48.632;10.156;2023-02-04T17:10:40;4.00;93.80
4739;DHT22;2383;48.632;10.156;2023-02-04T17:15:01;4.10;93.60
4739;DHT22;2383;48.632;10.156;2023-02-04T17:19:03;4.00;93.90
4739;DHT22;2383;48.632;10.156;2023-02-04T17:23:06;3.90;94.30
4739;DHT22;2383;48.632;10.156;2023-02-04T17:27:09;3.90;94.60
4739;DHT22;2383;48.632;10.156;2023-02-04T17:31:11;3.70;94.90
4739;DHT22;2383;48.632;10.156;2023-02-04T17:35:13;3.50;94.20
4739;DHT22;2383;48.632;10.156;2023-02-04T17:39:15;3.50;94.60
4739;DHT22;2383;48.632;10.156;2023-02-04T17:43:17;3.50;94.30
4739;DHT22;2383;48.632;10.156;2023-02-04T17:47:19;3.50;94.30
4739;DHT22;2383;48.632;10.156;2023-02-04T17:51:21;3.50;94.20
4739;DHT22;2383;48.632;10.156;2023-02-04T17:55:24;3.50;94.10
4739;DHT22;2383;48.632;10.156;2023-02-04T17:59:28;3.40;94.20
4739;DHT22;2383;48.632;10.156;2023-02-04T18:03:30;3.50;94.60
4739;DHT22;2383;48.632;10.156;2023-02-04T18:07:34;3.20;94.50
4739;DHT22;2383;48.632;10.156;2023-02-04T18:11:38;2.90;94.90
4739;DHT22;2383;48.632;10.156;2023-02-04T18:15:43;3.00;94.90
4739;DHT22;2383;48.632;10.156;2023-02-04T18:19:46;3.00;95.10
4739;DHT22;2383;48.632;10.156;2023-02-04T18:28:17;3.30;95.00
4739;DHT22;2383;48.632;10.156;2023-02-04T18:32:37;2.90;95.00
4739;DHT22;2383;48.632;10.156;2023-02-04T18:36:39;2.70;95.40
4739;DHT22;2383;48.632;10.156;2023-02-04T18:40:41;2.70;95.60
4739;DHT22;2383;48.632;10.156;2023-02-04T18:44:43;3.00;95.40
4739;DHT22;2383;48.632;10.156;2023-02-04T18:57:38;3.10;95.00
4739;DHT22;2383;48.632;10.156;2023-02-04T19:01:40;3.10;95.20
4739;DHT22;2383;48.632;10.156;2023-02-04T19:05:46;3.10;95.20
4739;DHT22;2383;48.632;10.156;2023-02-04T19:09:49;3.00;95.30
4739;DHT22;2383;48.632;10.156;2023-02-04T19:13:54;3.00;95.40
4739;DHT22;2383;48.632;10.156;2023-02-04T19:18:05;2.80;95.50
4739;DHT22;2383;48.632;10.156;2023-02-04T19:22:34;2.70;95.70
4739;DHT22;2383;48.632;10.156;2023-02-04T19:26:51;2.40;95.60
4739;DHT22;2383;48.632;10.156;2023-02-04T19:35:15;2.80;95.50
4739;DHT22;2383;48.632;10.156;2023-02-04T19:39:37;2.80;95.50
4739;DHT22;2383;48.632;10.156;2023-02-04T19:43:41;2.90;95.50
4739;DHT22;2383;48.632;10.156;2023-02-04T19:47:43;2.80;95.30
4739;DHT22;2383;48.632;10.156;2023-02-04T19:51:49;2.60;95.50
4739;DHT22;2383;48.632;10.156;2023-02-04T19:55:53;2.60;95.70
4739;DHT22;2383;48.632;10.156;2023-02-04T19:59:55;2.30;95.60
4739;DHT22;2383;48.632;10.156;2023-02-04T20:03:58;2.10;95.80
4739;DHT22;2383;48.632;10.156;2023-02-04T20:12:39;2.30;95.60
4739;DHT22;2383;48.632;10.156;2023-02-04T20:20:54;2.40;95.30
4739;DHT22;2383;48.632;10.156;2023-02-04T20:25:06;2.10;95.50
4739;DHT22;2383;48.632;10.156;2023-02-04T20:29:22;2.00;95.60
4739;DHT22;2383;48.632;10.156;2023-02-04T20:37:51;2.20;95.70
4739;DHT22;2383;48.632;10.156;2023-02-04T20:41:57;2.30;95.50
4739;DHT22;2383;48.632;10.156;2023-02-04T20:46:01;2.40;95.40
4739;DHT22;2383;48.632;10.156;2023-02-04T20:50:36;2.20;95.80
4739;DHT22;2383;48.632;10.156;2023-02-04T20:54:39;1.70;95.80
4739;DHT22;2383;48.632;10.156;2023-02-04T20:58:42;1.90;96.00
4739;DHT22;2383;48.632;10.156;2023-02-04T21:02:45;2.00;95.80
4739;DHT22;2383;48.632;10.156;2023-02-04T21:06:48;2.20;95.50
4739;DHT22;2383;48.632;10.156;2023-02-04T21:10:51;2.20;95.50
4739;DHT22;2383;48.632;10.156;2023-02-04T21:14:53;2.00;95.70
4739;DHT22;2383;48.632;10.156;2023-02-04T21:18:55;2.10;95.60
4739;DHT22;2383;48.632;10.156;2023-02-04T21:22:57;2.20;95.50
4739;DHT22;2383;48.632;10.156;2023-02-04T21:26:59;2.10;95.50
4739;DHT22;2383;48.632;10.156;2023-02-04T21:31:01;2.20;95.50
4739;DHT22;2383;48.632;10.156;2023-02-04T21:35:03;2.00;95.40
4739;DHT22;2383;48.632;10.156;2023-02-04T21:39:05;1.90;95.90
4739;DHT22;2383;48.632;10.156;2023-02-04T21:43:08;1.90;95.40
4739;DHT22;2383;48.632;10.156;2023-02-04T21:47:10;1.90;95.70
4739;DHT22;2383;48.632;10.156;2023-02-04T21:51:14;1.90;95.60
4739;DHT22;2383;48.632;10.156;2023-02-04T21:55:18;1.90;95.50
4739;DHT22;2383;48.632;10.156;2023-02-04T21:59:20;2.20;95.40
4739;DHT22;2383;48.632;10.156;2023-02-04T22:03:23;2.20;95.20
4739;DHT22;2383;48.632;10.156;2023-02-04T22:07:25;2.20;95.00
4739;DHT22;2383;48.632;10.156;2023-02-04T22:11:27;2.00;94.90
4739;DHT22;2383;48.632;10.156;2023-02-04T22:15:29;1.90;95.70
4739;DHT22;2383;48.632;10.156;2023-02-04T22:19:31;1.80;95.40
4739;DHT22;2383;48.632;10.156;2023-02-04T22:23:33;1.90;95.40
4739;DHT22;2383;48.632;10.156;2023-02-04T22:27:35;2.00;94.90
4739;DHT22;2383;48.632;10.156;2023-02-04T22:31:37;1.80;95.10
4739;DHT22;2383;48.632;10.156;2023-02-04T22:35:39;2.00;95.10
4739;DHT22;2383;48.632;10.156;2023-02-04T22:39:41;2.10;94.90
4739;DHT22;2383;48.632;10.156;2023-02-04T22:43:43;2.10;95.00
4739;DHT22;2383;48.632;10.156;2023-02-04T22:47:45;2.10;95.10
4739;DHT22;2383;48.632;10.156;2023-02-04T22:51:47;2.00;95.00
4739;DHT22;2383;48.632;10.156;2023-02-04T22:55:49;2.00;94.90
4739;DHT22;2383;48.632;10.156;2023-02-04T22:59:51;2.00;94.90
4739;DHT22;2383;48.632;10.156;2023-02-04T23:03:53;1.90;94.80
4739;DHT22;2383;48.632;10.156;2023-02-04T23:07:55;1.80;94.90
4739;DHT22;2383;48.632;10.156;2023-02-04T23:11:57;1.60;95.20
4739;DHT22;2383;48.632;10.156;2023-02-04T23:15:59;1.60;95.00
4739;DHT22;2383;48.632;10.156;2023-02-04T23:20:01;1.50;95.00
4739;DHT22;2383;48.632;10.156;2023-02-04T23:24:03;1.50;95.00
4739;DHT22;2383;48.632;10.156;2023-02-04T23:28:05;1.40;95.00
4739;DHT22;2383;48.632;10.156;2023-02-04T23:32:07;1.40;95.10
4739;DHT22;2383;48.632;10.156;2023-02-04T23:36:10;1.30;95.10
4739;DHT22;2383;48.632;10.156;2023-02-04T23:40:12;1.30;94.90
4739;DHT22;2383;48.632;10.156;2023-02-04T23:44:14;1.20;94.80
4739;DHT22;2383;48.632;10.156;2023-02-04T23:48:16;1.10;95.10
4739;DHT22;2383;48.632;10.156;2023-02-04T23:52:18;1.10;94.90
4739;DHT22;2383;48.632;10.156;2023-02-04T23:56:20;1.00;95.00
